Time;durP1;ratioP1;P1;durP2;ratioP2;P2;SDS_P1;SDS_P2;PMS_P1;PMS_P2;Temp;Humidity;BMP_temperature;BMP_pressure;BME280_temperature;BME280_humidity;BME280_pressure;Samples;Min_cycle;Max_cycle;Signal;HPM_P1;HPM_P2
2022/01/22 00:01:14;;;;;;;9.73;7.40;;;8.50;59.30;;;;;;4972273;28;20188;-43
2022/01/22 00:03:40;;;;;;;11.93;6.93;;;8.50;59.30;;;;;;4972439;28;20505;-43
2022/01/22 00:06:05;;;;;;;13.93;7.80;;;8.40;59.30;;;;;;4976908;28;20195;-43
2022/01/22 00:08:31;;;;;;;10.80;7.33;;;8.40;59.30;;;;;;4976975;28;20227;-43
2022/01/22 00:10:57;;;;;;;13.03;7.60;;;8.40;59.40;;;;;;4972164;28;20268;-43
2022/01/22 00:16:07;;;;;;;11.30;7.03;;;8.20;60.00;;;;;;4973057;28;20700;-43
2022/01/22 00:18:33;;;;;;;9.57;7.37;;;8.30;60.00;;;;;;4971148;28;20475;-43
2022/01/22 00:20:58;;;;;;;12.97;8.20;;;8.30;59.80;;;;;;4973046;28;20331;-43
2022/01/22 00:23:26;;;;;;;12.80;8.57;;;8.30;59.90;;;;;;4971471;28;20203;-43
2022/01/22 00:25:53;;;;;;;11.67;7.97;;;8.40;59.90;;;;;;4976490;28;20206;-43
2022/01/22 00:28:19;;;;;;;11.67;8.60;;;8.40;59.80;;;;;;4972546;28;20502;-43
2022/01/22 00:30:44;;;;;;;11.97;9.37;;;8.40;59.80;;;;;;4968860;28;20446;-43
2022/01/22 00:33:10;;;;;;;10.10;8.17;;;8.40;60.00;;;;;;4971374;28;20202;-43
2022/01/22 00:35:35;;;;;;;11.73;8.50;;;8.40;60.10;;;;;;4968571;28;20195;-43
2022/01/22 00:38:01;;;;;;;12.43;8.43;;;8.40;60.40;;;;;;4969646;28;20199;-43
2022/01/22 00:40:27;;;;;;;11.40;8.77;;;8.40;60.60;;;;;;4967370;28;20255;-43
2022/01/22 00:42:53;;;;;;;12.70;9.47;;;8.50;60.40;;;;;;4967752;28;20203;-43
2022/01/22 00:45:19;;;;;;;10.13;7.90;;;8.50;60.30;;;;;;4974119;28;20278;-43
2022/01/22 00:47:45;;;;;;;13.00;8.83;;;8.50;60.50;;;;;;4981119;28;20564;-43
2022/01/22 00:50:14;;;;;;;11.27;8.40;;;8.50;60.50;;;;;;4970553;28;20502;-43
2022/01/22 00:52:41;;;;;;;11.30;7.53;;;8.50;60.70;;;;;;4969182;28;20453;-43
2022/01/22 00:55:07;;;;;;;10.80;7.57;;;8.50;60.70;;;;;;4964231;28;20440;-43
2022/01/22 00:57:32;;;;;;;10.67;7.93;;;8.50;60.70;;;;;;4971414;28;20591;-43
2022/01/22 00:59:58;;;;;;;17.13;8.13;;;8.50;60.80;;;;;;4972704;28;20458;-43
2022/01/22 01:02:24;;;;;;;11.60;7.87;;;8.50;60.70;;;;;;4969602;28;20226;-43
2022/01/22 01:04:49;;;;;;;12.27;8.67;;;8.60;60.60;;;;;;4969187;28;20564;-43
2022/01/22 01:07:15;;;;;;;11.83;8.70;;;8.60;60.40;;;;;;4968793;28;20196;-43
2022/01/22 01:09:41;;;;;;;16.73;8.67;;;8.60;60.40;;;;;;4970096;28;20636;-43
2022/01/22 01:12:10;;;;;;;11.73;7.33;;;8.60;60.50;;;;;;4965357;28;20195;-43
2022/01/22 01:14:43;;;;;;;10.40;7.57;;;8.60;60.60;;;;;;4970303;28;20725;-43
2022/01/22 01:17:22;;;;;;;9.57;7.87;;;8.60;60.60;;;;;;4971773;28;20454;-44
2022/01/22 01:33:59;;;;;;;11.63;7.37;;;8.60;60.90;;;;;;4972697;28;20892;-43
2022/01/22 01:36:24;;;;;;;11.40;8.80;;;8.60;60.90;;;;;;4966074;28;20446;-43
2022/01/22 01:38:55;;;;;;;13.50;8.50;;;8.60;60.90;;;;;;4970286;28;20546;-43
2022/01/22 01:41:58;;;;;;;12.57;9.50;;;8.60;60.80;;;;;;4965427;28;20346;-43
2022/01/22 01:44:12;;;;;;;12.20;8.17;;;8.60;60.80;;;;;;4961978;28;20454;-44
2022/01/22 01:46:47;;;;;;;11.23;7.60;;;8.60;61.10;;;;;;4968404;28;20930;-43
2022/01/22 01:49:13;;;;;;;11.73;7.43;;;8.60;61.10;;;;;;4970268;28;20647;-43
2022/01/22 01:51:39;;;;;;;8.33;7.27;;;8.60;61.20;;;;;;4966941;28;20436;-43
2022/01/22 01:59:47;;;;;;;9.53;6.67;;;8.40;62.50;;;;;;4971101;28;20976;-43
2022/01/22 02:02:13;;;;;;;10.80;7.50;;;8.30;62.90;;;;;;4968178;28;20453;-44
2022/01/22 02:04:41;;;;;;;10.13;6.70;;;8.40;62.70;;;;;;4975473;28;21099;-43
2022/01/22 02:07:07;;;;;;;7.90;7.10;;;8.50;62.50;;;;;;4970857;28;20447;-43
2022/01/22 02:09:34;;;;;;;11.40;7.07;;;8.50;62.30;;;;;;4971337;28;20497;-44
2022/01/22 02:25:49;;;;;;;9.17;7.40;;;8.70;62.10;;;;;;4967523;28;20848;-43
2022/01/22 02:28:14;;;;;;;11.57;8.10;;;8.60;62.00;;;;;;4967266;28;20783;-43
2022/01/22 02:30:44;;;;;;;13.77;7.80;;;8.70;62.00;;;;;;4970811;28;20910;-43
2022/01/22 02:35:52;;;;;;;12.57;8.17;;;8.70;61.70;;;;;;4971957;28;20449;-43
2022/01/22 02:38:26;;;;;;;10.87;7.80;;;8.80;61.70;;;;;;4966387;28;20447;-44
2022/01/22 02:40:51;;;;;;;12.20;8.00;;;8.80;61.50;;;;;;4967971;28;20478;-43
2022/01/22 02:43:19;;;;;;;9.23;7.33;;;8.70;61.30;;;;;;4966629;28;20454;-43
2022/01/22 02:45:46;;;;;;;14.90;8.07;;;8.60;61.40;;;;;;4968638;28;20195;-43
2022/01/22 02:48:13;;;;;;;13.97;8.20;;;8.80;61.30;;;;;;4966005;28;20501;-43
2022/01/22 02:50:39;;;;;;;10.90;8.17;;;8.90;60.80;;;;;;4969581;28;21139;-43
2022/01/22 02:53:07;;;;;;;16.03;8.13;;;9.00;60.50;;;;;;4974300;28;20458;-43
2022/01/22 02:55:33;;;;;;;10.50;7.70;;;8.90;60.70;;;;;;4970641;28;20556;-43
2022/01/22 02:57:59;;;;;;;11.80;8.53;;;8.80;60.90;;;;;;4969055;28;20450;-44
2022/01/22 03:00:26;;;;;;;13.73;8.40;;;8.70;61.20;;;;;;4964881;28;20534;-43
2022/01/22 03:02:51;;;;;;;8.77;7.27;;;8.70;61.40;;;;;;4971301;28;20445;-43
2022/01/22 03:05:18;;;;;;;9.80;7.30;;;8.70;61.30;;;;;;4970671;28;20544;-43
2022/01/22 03:07:49;;;;;;;11.50;7.60;;;8.70;61.60;;;;;;4970523;28;20198;-43
2022/01/22 03:10:16;;;;;;;13.23;8.73;;;8.60;61.30;;;;;;4971517;28;20482;-43
2022/01/22 03:23:04;;;;;;;10.60;7.40;;;8.30;62.60;;;;;;4970152;28;20441;-43
2022/01/22 03:28:14;;;;;;;11.37;7.30;;;8.40;62.60;;;;;;4971928;28;20477;-43
2022/01/22 03:30:39;;;;;;;8.80;7.90;;;8.20;62.80;;;;;;4976433;28;20949;-43
2022/01/22 03:33:05;;;;;;;13.80;9.33;;;8.30;63.00;;;;;;4969448;28;20441;-43
2022/01/22 03:35:34;;;;;;;11.17;8.10;;;8.20;63.00;;;;;;4970107;28;20675;-43
2022/01/22 03:38:00;;;;;;;12.27;9.00;;;8.20;63.20;;;;;;4967794;28;20203;-43
2022/01/22 03:40:29;;;;;;;11.57;8.57;;;8.10;63.40;;;;;;4971474;28;20482;-43
2022/01/22 03:42:55;;;;;;;10.97;8.30;;;8.10;63.70;;;;;;4970171;28;20210;-43
2022/01/22 03:45:22;;;;;;;14.10;9.13;;;8.10;63.20;;;;;;4970742;28;20500;-43
2022/01/22 03:47:48;;;;;;;11.27;8.07;;;8.30;62.90;;;;;;4971033;28;20835;-44
2022/01/22 03:50:16;;;;;;;13.30;7.87;;;8.50;62.40;;;;;;4971175;28;20540;-43
2022/01/22 03:52:42;;;;;;;11.70;9.10;;;8.50;62.70;;;;;;4970821;28;20430;-44
2022/01/22 03:55:19;;;;;;;15.40;8.70;;;8.30;62.20;;;;;;4969197;28;21067;-43
2022/01/22 03:57:45;;;;;;;11.00;8.30;;;8.30;62.50;;;;;;4969010;28;20337;-43
2022/01/22 04:00:11;;;;;;;12.77;7.57;;;8.20;62.30;;;;;;4971917;28;20521;-43
2022/01/22 04:05:05;;;;;;;10.80;7.80;;;8.30;62.50;;;;;;4972214;28;20196;-43
2022/01/22 04:10:18;;;;;;;10.57;9.10;;;8.20;62.50;;;;;;4969926;28;20476;-44
2022/01/22 04:13:02;;;;;;;11.90;7.80;;;8.20;62.60;;;;;;4970315;28;21020;-43
2022/01/22 04:15:30;;;;;;;10.30;7.63;;;8.30;62.40;;;;;;4969844;28;20465;-44
2022/01/22 04:28:49;;;;;;;10.13;7.87;;;8.40;61.90;;;;;;4972206;28;20521;-44
2022/01/22 04:31:15;;;;;;;10.20;7.93;;;8.60;61.70;;;;;;4972386;28;20442;-44
2022/01/22 04:33:41;;;;;;;9.23;8.10;;;8.80;61.30;;;;;;4970341;28;20274;-44
2022/01/22 04:36:06;;;;;;;14.50;8.80;;;8.50;61.40;;;;;;4972581;28;20195;-44
2022/01/22 04:38:32;;;;;;;11.27;8.37;;;8.50;61.70;;;;;;4970194;28;20454;-44
2022/01/22 04:40:59;;;;;;;10.57;8.37;;;8.60;61.40;;;;;;4975210;28;20275;-44
2022/01/22 04:43:26;;;;;;;10.10;8.07;;;8.70;61.20;;;;;;4971503;28;20261;-44
2022/01/22 04:48:53;;;;;;;11.03;8.23;;;8.60;61.10;;;;;;4971983;28;20570;-44
2022/01/22 04:56:50;;;;;;;11.27;8.40;;;8.80;60.60;;;;;;4969998;28;20461;-44
2022/01/22 04:59:16;;;;;;;14.63;9.70;;;9.00;60.20;;;;;;4967774;28;20807;-44
2022/01/22 05:01:41;;;;;;;10.57;7.90;;;8.90;60.00;;;;;;4969669;28;20442;-44
2022/01/22 05:04:07;;;;;;;13.50;8.67;;;9.00;60.10;;;;;;4967612;28;20199;-44
2022/01/22 05:06:32;;;;;;;12.90;8.77;;;9.00;60.20;;;;;;4970306;28;20210;-44
2022/01/22 05:08:58;;;;;;;11.37;9.17;;;9.00;60.00;;;;;;4965967;28;20274;-44
2022/01/22 05:11:24;;;;;;;13.50;8.70;;;8.90;60.10;;;;;;4962281;28;20662;-43
2022/01/22 05:13:51;;;;;;;10.53;8.50;;;8.90;60.30;;;;;;4967160;28;20202;-44
2022/01/22 05:16:17;;;;;;;14.37;8.70;;;9.00;60.30;;;;;;4970639;28;20493;-44
2022/01/22 05:19:00;;;;;;;10.17;8.07;;;9.10;60.00;;;;;;4968804;28;20447;-43
2022/01/22 05:21:28;;;;;;;13.73;9.60;;;8.90;59.70;;;;;;4968072;28;20454;-43
2022/01/22 05:23:57;;;;;;;11.77;8.80;;;8.90;60.10;;;;;;4972937;28;20447;-43
2022/01/22 05:26:44;;;;;;;14.87;8.90;;;8.90;60.10;;;;;;4965226;28;20458;-44
2022/01/22 05:32:23;;;;;;;14.80;9.20;;;8.90;60.20;;;;;;4965005;28;20465;-44
2022/01/22 05:37:33;;;;;;;12.60;9.40;;;8.70;61.00;;;;;;4966108;28;20477;-44
2022/01/22 05:39:59;;;;;;;15.83;8.43;;;8.60;60.90;;;;;;4969039;28;20435;-44
2022/01/22 05:42:24;;;;;;;15.97;9.20;;;8.60;61.10;;;;;;4963999;28;20477;-44
2022/01/22 05:44:50;;;;;;;13.37;8.73;;;8.60;60.90;;;;;;4967281;28;21154;-44
2022/01/22 05:47:21;;;;;;;11.30;7.93;;;8.70;61.40;;;;;;4967576;28;20191;-44
2022/01/22 05:49:48;;;;;;;11.50;8.40;;;8.70;60.50;;;;;;4975035;28;20227;-44
2022/01/22 05:52:19;;;;;;;20.13;9.60;;;8.40;60.60;;;;;;4971163;28;20910;-44
2022/01/22 05:55:09;;;;;;;11.90;8.43;;;8.30;61.40;;;;;;4977223;28;20831;-44
2022/01/22 06:00:19;;;;;;;14.00;9.40;;;8.30;61.40;;;;;;4968850;28;20498;-44
2022/01/22 06:02:45;;;;;;;13.80;10.63;;;8.40;61.80;;;;;;4972251;28;20437;-44
2022/01/22 06:05:10;;;;;;;14.13;9.63;;;8.40;61.50;;;;;;4971397;28;20289;-43
2022/01/22 06:07:36;;;;;;;12.77;9.07;;;8.40;61.40;;;;;;4970970;28;20589;-44
2022/01/22 06:10:14;;;;;;;13.13;8.97;;;8.30;61.30;;;;;;4966495;28;20214;-43
2022/01/22 06:15:15;;;;;;;16.60;8.87;;;8.30;61.10;;;;;;4972917;28;21016;-43
2022/01/22 06:17:40;;;;;;;13.33;8.80;;;8.20;61.80;;;;;;4965126;28;20534;-43
2022/01/22 06:20:07;;;;;;;11.53;8.47;;;8.10;61.80;;;;;;4967311;28;20203;-43
2022/01/22 06:22:33;;;;;;;16.80;9.70;;;8.20;62.20;;;;;;4967843;28;20568;-43
2022/01/22 06:24:59;;;;;;;14.47;8.73;;;8.30;62.00;;;;;;4968244;28;20443;-43
2022/01/22 06:27:25;;;;;;;13.90;8.60;;;8.40;61.70;;;;;;4967642;28;21180;-43
2022/01/22 06:29:50;;;;;;;11.73;8.80;;;8.60;61.10;;;;;;4969142;28;20331;-43
2022/01/22 06:32:16;;;;;;;9.93;7.53;;;8.60;60.70;;;;;;4964884;28;20199;-43
2022/01/22 06:34:42;;;;;;;10.10;9.10;;;8.60;60.30;;;;;;4962408;28;20204;-43
2022/01/22 06:37:07;;;;;;;13.20;9.17;;;8.50;60.40;;;;;;4969390;28;20207;-43
2022/01/22 06:39:51;;;;;;;13.40;9.17;;;8.60;60.40;;;;;;4973106;28;20278;-43
2022/01/22 06:42:16;;;;;;;10.70;8.53;;;8.70;59.80;;;;;;4970010;28;20262;-43
2022/01/22 06:44:42;;;;;;;12.40;10.10;;;8.70;59.80;;;;;;4972699;28;20865;-43
2022/01/22 06:47:08;;;;;;;9.03;7.90;;;8.70;59.80;;;;;;4970800;28;20217;-43
2022/01/22 06:49:33;;;;;;;12.80;7.87;;;8.70;60.00;;;;;;4988211;28;20225;-43
2022/01/22 06:51:59;;;;;;;15.73;12.60;;;8.90;59.80;;;;;;4971274;28;20246;-43
2022/01/22 06:54:24;;;;;;;13.43;9.67;;;8.90;59.30;;;;;;4971230;28;20562;-43
2022/01/22 06:56:50;;;;;;;13.00;9.27;;;9.00;59.30;;;;;;4978542;28;20903;-44
2022/01/22 06:59:16;;;;;;;10.53;8.20;;;9.00;59.10;;;;;;4971905;28;20191;-43
2022/01/22 07:01:43;;;;;;;13.00;8.73;;;8.90;59.30;;;;;;4970784;28;20218;-43
2022/01/22 07:04:08;;;;;;;13.40;8.97;;;8.90;59.30;;;;;;4973789;28;20501;-43
2022/01/22 07:06:34;;;;;;;12.57;9.73;;;8.90;59.80;;;;;;4971024;28;20458;-43
2022/01/22 07:08:59;;;;;;;23.50;15.03;;;9.00;59.60;;;;;;4971267;28;20573;-43
2022/01/22 07:11:25;;;;;;;15.00;10.50;;;9.00;59.50;;;;;;4968621;28;20199;-43
2022/01/22 07:13:51;;;;;;;23.37;15.17;;;9.00;59.60;;;;;;4970814;28;20698;-44
2022/01/22 07:16:16;;;;;;;32.70;20.40;;;9.00;59.50;;;;;;4970248;28;20217;-44
2022/01/22 07:18:43;;;;;;;24.73;15.93;;;8.90;59.50;;;;;;4970319;28;20659;-44
2022/01/22 07:21:19;;;;;;;44.10;29.33;;;8.90;59.80;;;;;;4970329;28;20226;-44
2022/01/22 07:26:14;;;;;;;12.33;10.03;;;9.00;59.90;;;;;;4971039;28;20497;-44
2022/01/22 07:28:40;;;;;;;15.87;13.63;;;8.90;59.70;;;;;;4970550;28;20884;-44
2022/01/22 07:31:07;;;;;;;10.27;8.73;;;8.90;59.80;;;;;;4970110;28;20443;-44
2022/01/22 07:33:34;;;;;;;14.07;9.70;;;8.90;60.40;;;;;;4972688;28;20254;-44
2022/01/22 07:36:00;;;;;;;11.10;8.73;;;9.00;60.40;;;;;;4973633;28;20525;-44
2022/01/22 07:38:26;;;;;;;10.20;8.87;;;9.10;60.00;;;;;;4975554;28;20439;-44
2022/01/22 07:40:51;;;;;;;11.57;8.80;;;9.00;59.70;;;;;;4977572;28;20470;-44
2022/01/22 07:43:17;;;;;;;12.77;9.40;;;8.90;60.30;;;;;;4972798;28;20702;-44
2022/01/22 07:45:43;;;;;;;14.17;8.80;;;9.00;60.60;;;;;;4975856;28;20258;-44
2022/01/22 07:48:09;;;;;;;12.90;8.97;;;9.00;60.50;;;;;;4974505;28;20350;-44
2022/01/22 07:50:35;;;;;;;12.67;8.47;;;8.90;60.30;;;;;;4974316;28;20525;-43
2022/01/22 07:53:02;;;;;;;12.13;9.03;;;8.80;60.80;;;;;;4973318;28;20198;-44
2022/01/22 07:55:31;;;;;;;18.43;12.87;;;8.70;61.10;;;;;;4976608;28;20199;-43
2022/01/22 07:57:56;;;;;;;58.03;34.10;;;8.70;61.30;;;;;;4975436;28;20474;-44
2022/01/22 08:00:22;;;;;;;12.67;10.07;;;8.80;61.60;;;;;;4974530;28;20477;-43
2022/01/22 08:02:48;;;;;;;11.13;8.80;;;8.70;61.50;;;;;;4973446;28;20210;-43
2022/01/22 08:05:14;;;;;;;11.20;8.73;;;8.70;61.50;;;;;;4973300;28;20199;-44
2022/01/22 08:07:44;;;;;;;12.87;9.17;;;8.80;61.60;;;;;;4974480;28;20215;-43
2022/01/22 08:10:10;;;;;;;12.73;7.90;;;8.80;62.00;;;;;;4975144;28;20501;-42
2022/01/22 08:12:40;;;;;;;11.77;8.60;;;8.90;62.00;;;;;;4973777;28;20911;-43
2022/01/22 08:15:06;;;;;;;13.07;9.17;;;8.90;62.00;;;;;;4979963;28;20427;-43
2022/01/22 08:17:32;;;;;;;10.43;8.47;;;8.80;62.30;;;;;;4974331;28;21071;-42
2022/01/22 08:19:57;;;;;;;11.10;8.27;;;8.80;62.40;;;;;;4974668;28;20427;-44
2022/01/22 08:22:23;;;;;;;16.87;9.27;;;8.90;63.00;;;;;;4973953;28;20192;-43
2022/01/22 08:24:52;;;;;;;11.10;8.40;;;8.90;62.20;;;;;;4974498;28;20226;-43
2022/01/22 08:29:53;;;;;;;10.13;7.57;;;8.90;61.90;;;;;;4974710;28;20489;-43
2022/01/22 08:32:55;;;;;;;10.93;8.90;;;9.00;62.00;;;;;;4972993;28;20799;-43
2022/01/22 08:38:00;;;;;;;8.57;7.27;;;8.80;62.20;;;;;;4974139;28;20936;-43
2022/01/22 08:40:25;;;;;;;11.20;7.87;;;8.80;62.30;;;;;;4980118;28;20466;-43
2022/01/22 08:42:51;;;;;;;12.70;8.80;;;8.90;62.00;;;;;;4980759;28;20623;-41
2022/01/22 08:45:16;;;;;;;14.33;9.60;;;9.10;61.90;;;;;;4973980;28;20203;-43
2022/01/22 08:47:42;;;;;;;17.97;8.50;;;9.10;61.60;;;;;;4972943;28;20694;-43
2022/01/22 08:50:08;;;;;;;11.17;8.27;;;9.20;61.60;;;;;;4974258;28;20203;-42
2022/01/22 08:52:35;;;;;;;11.73;8.70;;;9.30;62.40;;;;;;4973592;28;20202;-42
2022/01/22 08:55:03;;;;;;;14.20;8.87;;;9.30;61.60;;;;;;4973406;28;20431;-43
2022/01/22 08:57:28;;;;;;;13.23;9.27;;;9.30;61.40;;;;;;4973647;28;20478;-44
2022/01/22 08:59:54;;;;;;;18.40;8.77;;;9.40;61.20;;;;;;4972449;28;20423;-44
2022/01/22 09:02:20;;;;;;;12.33;8.40;;;9.40;61.00;;;;;;4973478;28;20639;-41
2022/01/22 09:04:46;;;;;;;22.83;11.30;;;9.50;60.90;;;;;;4973217;28;20195;-43
2022/01/22 09:07:12;;;;;;;18.20;9.10;;;9.50;60.60;;;;;;4972838;28;20509;-41
2022/01/22 09:09:38;;;;;;;10.90;8.50;;;9.60;60.70;;;;;;4973138;28;20250;-41
2022/01/22 09:12:06;;;;;;;13.80;10.77;;;9.60;60.90;;;;;;4973325;28;20211;-41
2022/01/22 09:14:32;;;;;;;12.23;9.30;;;9.60;60.80;;;;;;4978405;28;20926;-44
2022/01/22 09:16:59;;;;;;;15.30;9.17;;;9.60;60.70;;;;;;4973310;28;20438;-44
2022/01/22 09:19:32;;;;;;;11.53;8.47;;;9.70;60.80;;;;;;4973125;28;20195;-41
2022/01/22 09:21:59;;;;;;;13.90;8.60;;;9.70;60.60;;;;;;4973499;28;20453;-41
2022/01/22 09:24:25;;;;;;;14.63;9.87;;;9.70;60.60;;;;;;4973518;28;20513;-42
2022/01/22 09:26:51;;;;;;;20.30;9.60;;;9.70;60.30;;;;;;4971515;28;20574;-41
2022/01/22 09:29:17;;;;;;;14.30;8.13;;;9.70;60.60;;;;;;4973129;28;20597;-42
2022/01/22 09:31:44;;;;;;;17.10;10.03;;;9.70;60.30;;;;;;4972921;28;20438;-42
2022/01/22 09:34:10;;;;;;;14.67;9.77;;;9.70;60.40;;;;;;4973399;28;20214;-42
2022/01/22 09:36:35;;;;;;;13.20;10.37;;;9.70;60.30;;;;;;4972802;28;20914;-42
2022/01/22 09:39:03;;;;;;;15.63;10.80;;;9.70;60.30;;;;;;4973233;28;20435;-41
2022/01/22 09:41:29;;;;;;;16.40;11.20;;;9.80;60.20;;;;;;4985346;28;20238;-42
2022/01/22 09:43:55;;;;;;;14.77;10.97;;;9.80;59.90;;;;;;4972984;28;20419;-42
2022/01/22 09:46:22;;;;;;;17.30;12.20;;;9.80;59.80;;;;;;4972493;28;20439;-42
2022/01/22 09:48:50;;;;;;;15.10;10.33;;;9.90;60.10;;;;;;4973478;28;20521;-41
2022/01/22 09:51:16;;;;;;;21.73;11.47;;;9.90;59.90;;;;;;4971989;28;20430;-41
2022/01/22 09:53:43;;;;;;;14.20;9.50;;;9.90;59.70;;;;;;4972569;28;20422;-42
2022/01/22 09:56:10;;;;;;;13.10;9.10;;;9.90;59.60;;;;;;4971554;28;20866;-41
2022/01/22 09:58:36;;;;;;;10.70;8.80;;;9.70;59.70;;;;;;4972619;28;20533;-41
2022/01/22 10:01:18;;;;;;;11.30;9.20;;;9.60;59.70;;;;;;4972399;28;20993;-42
2022/01/22 10:03:44;;;;;;;16.70;9.47;;;9.60;60.20;;;;;;4972643;28;20203;-41
2022/01/22 10:06:23;;;;;;;17.23;10.70;;;9.70;60.00;;;;;;4972495;28;20795;-42
2022/01/22 10:08:51;;;;;;;13.00;9.80;;;9.80;59.80;;;;;;4972648;28;20600;-41
2022/01/22 10:11:25;;;;;;;16.57;9.87;;;9.90;59.80;;;;;;4971972;28;20431;-41
2022/01/22 10:13:59;;;;;;;11.53;9.33;;;9.90;59.70;;;;;;4977004;28;20502;-41
2022/01/22 10:16:33;;;;;;;16.77;9.13;;;9.90;59.90;;;;;;4971970;28;20457;-41
2022/01/22 10:19:12;;;;;;;16.87;10.20;;;9.80;60.10;;;;;;4972608;28;20458;-42
2022/01/22 10:21:41;;;;;;;19.20;10.30;;;9.90;60.00;;;;;;4970467;28;20450;-42
2022/01/22 10:24:26;;;;;;;14.37;10.17;;;9.90;59.90;;;;;;4971853;28;20435;-43
2022/01/22 10:30:02;;;;;;;12.63;9.57;;;9.80;60.20;;;;;;4972570;28;20569;-41
2022/01/22 10:32:57;;;;;;;13.77;9.00;;;9.80;60.30;;;;;;4972115;28;20509;-41
2022/01/22 10:35:22;;;;;;;14.03;9.57;;;9.80;60.30;;;;;;4971442;28;20450;-41
2022/01/22 10:38:03;;;;;;;10.43;8.10;;;9.90;60.90;;;;;;4971799;28;20442;-41
2022/01/22 10:40:38;;;;;;;13.37;8.77;;;9.80;60.10;;;;;;4978634;28;20937;-42
2022/01/22 10:43:20;;;;;;;11.00;7.70;;;9.80;60.20;;;;;;4977150;28;20525;-41
2022/01/22 10:46:08;;;;;;;11.87;8.90;;;9.70;60.20;;;;;;4971900;28;20466;-41
2022/01/22 10:48:35;;;;;;;12.80;9.43;;;9.80;60.40;;;;;;4969992;28;20974;-41
2022/01/22 10:51:11;;;;;;;9.77;8.33;;;9.60;60.90;;;;;;4971243;28;20426;-42
2022/01/22 10:53:41;;;;;;;10.60;8.13;;;9.60;61.40;;;;;;4978048;28;20525;-42
2022/01/22 10:56:08;;;;;;;12.97;8.93;;;9.70;61.20;;;;;;4970538;28;20526;-42
2022/01/22 10:58:34;;;;;;;11.93;7.47;;;9.70;60.90;;;;;;4968890;28;20801;-42
2022/01/22 11:01:05;;;;;;;13.07;8.43;;;9.70;60.80;;;;;;4971368;28;20534;-43
2022/01/22 11:03:32;;;;;;;7.97;7.17;;;9.80;60.50;;;;;;4970575;28;20940;-43
2022/01/22 11:06:04;;;;;;;15.43;7.90;;;9.90;60.30;;;;;;4971001;28;20431;-42
2022/01/22 11:08:29;;;;;;;16.30;8.70;;;9.90;60.10;;;;;;4967715;28;20486;-42
2022/01/22 11:10:55;;;;;;;9.93;7.70;;;9.90;60.10;;;;;;4973106;28;20431;-43
2022/01/22 11:13:21;;;;;;;10.50;8.37;;;9.90;60.20;;;;;;4975405;28;20439;-42
2022/01/22 11:15:50;;;;;;;14.13;9.07;;;9.80;60.50;;;;;;4978667;28;20438;-43
2022/01/22 11:18:18;;;;;;;13.27;8.90;;;9.90;60.80;;;;;;4980546;28;20199;-42
2022/01/22 11:20:45;;;;;;;13.10;8.90;;;9.90;60.80;;;;;;4974814;28;20434;-42
2022/01/22 11:23:14;;;;;;;11.17;8.30;;;10.00;59.70;;;;;;4974460;28;20442;-42
2022/01/22 11:25:41;;;;;;;12.27;8.43;;;10.00;59.70;;;;;;4975031;28;20446;-42
2022/01/22 11:28:07;;;;;;;16.93;7.87;;;10.00;59.60;;;;;;4974621;28;20478;-42
2022/01/22 11:30:35;;;;;;;10.07;6.70;;;10.10;59.50;;;;;;4983190;28;20449;-42
2022/01/22 11:33:06;;;;;;;10.37;8.10;;;10.00;59.30;;;;;;4979858;28;20443;-42
2022/01/22 11:35:53;;;;;;;12.40;8.27;;;9.80;60.50;;;;;;4975841;28;20584;-42
2022/01/22 11:38:27;;;;;;;13.33;8.57;;;9.80;60.70;;;;;;4974471;28;20446;-42
2022/01/22 11:41:19;;;;;;;14.50;9.17;;;9.90;60.80;;;;;;4975969;28;20614;-42
2022/01/22 11:44:02;;;;;;;11.67;8.90;;;9.80;61.00;;;;;;4972506;28;20493;-42
2022/01/22 11:46:33;;;;;;;12.33;8.77;;;9.80;61.30;;;;;;4975907;28;20449;-42
2022/01/22 11:49:17;;;;;;;12.33;8.80;;;9.90;61.10;;;;;;4974455;28;20973;-42
2022/01/22 11:51:49;;;;;;;14.80;9.00;;;10.00;60.00;;;;;;4973174;28;20469;-42
2022/01/22 11:54:17;;;;;;;9.90;8.43;;;10.00;59.90;;;;;;4974168;28;20451;-42
2022/01/22 11:56:47;;;;;;;13.63;8.70;;;10.10;59.70;;;;;;4973751;28;20446;-42
2022/01/22 11:59:15;;;;;;;12.07;9.30;;;10.20;59.60;;;;;;4973170;28;20438;-42
2022/01/22 12:01:50;;;;;;;13.43;8.57;;;10.10;59.20;;;;;;4973834;28;20435;-42
2022/01/22 12:04:24;;;;;;;12.27;7.53;;;10.20;59.40;;;;;;4973611;28;20568;-42
2022/01/22 12:07:05;;;;;;;10.00;6.90;;;10.20;59.40;;;;;;4965788;28;20438;-43
2022/01/22 12:15:35;;;;;;;11.27;6.80;;;9.80;60.30;;;;;;4974024;28;20542;-42
2022/01/22 12:18:01;;;;;;;8.53;7.00;;;9.90;60.30;;;;;;4973999;28;20449;-42
2022/01/22 12:23:17;;;;;;;9.37;6.37;;;9.60;60.40;;;;;;4971688;28;20439;-42
2022/01/22 12:25:43;;;;;;;7.73;6.37;;;9.50;61.60;;;;;;4971665;28;20474;-42
2022/01/22 12:28:10;;;;;;;11.03;7.67;;;9.70;61.30;;;;;;4973457;28;20513;-43
2022/01/22 12:30:44;;;;;;;8.30;6.73;;;9.80;60.50;;;;;;4973915;28;20298;-42
2022/01/22 12:33:32;;;;;;;8.37;6.67;;;9.80;60.10;;;;;;4972754;28;20450;-42
2022/01/22 12:36:00;;;;;;;7.77;6.97;;;9.70;60.20;;;;;;4970927;28;21079;-42
2022/01/22 12:38:44;;;;;;;9.23;6.80;;;9.70;60.60;;;;;;4973115;28;20438;-43
2022/01/22 12:41:27;;;;;;;11.20;7.03;;;9.70;60.80;;;;;;4974106;28;20474;-43
2022/01/22 12:44:13;;;;;;;11.83;7.93;;;9.50;61.30;;;;;;4969817;28;20447;-43
2022/01/22 12:46:40;;;;;;;9.87;7.53;;;9.40;61.30;;;;;;4975963;28;20450;-42
2022/01/22 12:49:08;;;;;;;11.70;7.90;;;9.40;61.40;;;;;;4973414;28;20490;-42
2022/01/22 12:51:35;;;;;;;10.40;7.13;;;9.20;62.00;;;;;;4973882;28;20431;-42
2022/01/22 12:54:02;;;;;;;9.57;7.53;;;9.20;62.50;;;;;;4975723;28;20569;-43
2022/01/22 12:59:07;;;;;;;13.17;8.27;;;9.40;62.00;;;;;;4976702;28;20438;-43
2022/01/22 13:01:34;;;;;;;7.33;5.97;;;9.40;61.80;;;;;;4975314;28;20445;-43
2022/01/22 13:04:03;;;;;;;12.27;7.57;;;9.50;61.90;;;;;;4972992;28;20526;-43
2022/01/22 13:06:50;;;;;;;11.73;8.10;;;9.60;62.00;;;;;;4974792;28;20446;-43
2022/01/22 13:09:16;;;;;;;11.13;6.77;;;9.60;61.40;;;;;;4970690;28;20492;-43
2022/01/22 13:11:47;;;;;;;10.13;8.00;;;9.50;61.50;;;;;;4972672;28;20435;-44
2022/01/22 13:14:27;;;;;;;9.27;7.53;;;9.60;61.80;;;;;;4977332;28;20442;-43
2022/01/22 13:16:55;;;;;;;9.60;8.17;;;9.70;61.30;;;;;;4966804;28;20501;-44
2022/01/22 13:19:22;;;;;;;11.20;9.07;;;9.80;61.20;;;;;;4974277;28;20541;-43
2022/01/22 13:22:00;;;;;;;10.17;7.77;;;9.70;61.20;;;;;;4972300;28;20446;-44
2022/01/22 13:24:28;;;;;;;10.97;7.57;;;9.40;61.10;;;;;;4972675;28;20447;-43
2022/01/22 13:29:52;;;;;;;16.93;8.60;;;9.20;62.50;;;;;;4964418;28;20498;-42
2022/01/22 13:49:00;;;;;;;18.70;8.93;;;9.30;62.60;;;;;;4971718;28;20544;-43
2022/01/22 13:51:27;;;;;;;13.70;8.73;;;9.30;62.80;;;;;;4971694;28;20442;-43
2022/01/22 13:53:57;;;;;;;12.00;8.03;;;9.30;62.50;;;;;;4972477;28;20473;-43
2022/01/22 13:56:54;;;;;;;9.13;7.53;;;9.30;62.60;;;;;;4960286;28;20442;-43
2022/01/22 13:59:23;;;;;;;18.60;9.60;;;9.40;62.50;;;;;;4969701;28;20435;-43
2022/01/22 14:02:07;;;;;;;10.80;8.17;;;9.50;62.00;;;;;;4967200;28;20446;-43
2022/01/22 14:04:45;;;;;;;10.97;8.10;;;9.50;61.90;;;;;;4967173;28;20439;-43
2022/01/22 14:07:35;;;;;;;13.20;8.87;;;9.40;61.80;;;;;;4970593;28;20482;-43
2022/01/22 14:10:16;;;;;;;13.17;9.30;;;9.40;62.00;;;;;;4971937;28;20493;-43
2022/01/22 14:12:45;;;;;;;11.00;8.17;;;9.40;62.20;;;;;;4966340;28;20451;-43
2022/01/22 14:15:13;;;;;;;14.77;9.20;;;9.50;61.60;;;;;;4975906;28;20434;-43
2022/01/22 14:21:19;;;;;;;19.23;10.63;;;9.50;61.80;;;;;;4971861;28;20447;-43
2022/01/22 14:23:46;;;;;;;17.23;11.10;;;9.70;61.10;;;;;;4969578;28;20458;-44
2022/01/22 14:26:11;;;;;;;14.03;9.20;;;9.80;60.70;;;;;;4970676;28;20528;-43
2022/01/22 14:28:48;;;;;;;13.67;9.67;;;9.90;60.50;;;;;;4971998;28;20919;-43
2022/01/22 14:31:26;;;;;;;11.20;9.17;;;9.80;60.10;;;;;;4974467;28;20217;-43
2022/01/22 14:33:53;;;;;;;15.40;9.97;;;9.70;60.40;;;;;;4968732;28;20458;-43
2022/01/22 14:36:22;;;;;;;9.67;8.10;;;9.50;60.90;;;;;;4974335;28;20431;-43
2022/01/22 14:38:54;;;;;;;12.13;8.60;;;9.60;61.20;;;;;;4970443;28;20452;-44
2022/01/22 14:44:26;;;;;;;13.33;10.50;;;9.70;60.80;;;;;;4972940;28;20457;-43
2022/01/22 14:47:13;;;;;;;14.60;10.10;;;9.80;60.70;;;;;;4966331;28;20589;-43
2022/01/22 14:49:45;;;;;;;17.57;13.10;;;9.80;60.60;;;;;;4969770;28;20548;-43
2022/01/22 14:52:13;;;;;;;24.10;18.23;;;9.90;60.50;;;;;;4976223;28;20423;-43
2022/01/22 14:54:41;;;;;;;14.97;10.67;;;9.80;60.20;;;;;;4963125;28;20454;-43
2022/01/22 14:57:10;;;;;;;27.60;17.03;;;9.90;60.40;;;;;;4966807;28;21094;-43
2022/01/22 14:59:37;;;;;;;22.13;14.90;;;9.90;60.20;;;;;;4971344;28;20474;-43
2022/01/22 15:02:04;;;;;;;19.73;13.00;;;10.00;59.30;;;;;;4968642;28;20949;-43
2022/01/22 15:04:30;;;;;;;16.83;11.37;;;10.00;59.20;;;;;;4971140;28;21170;-43
2022/01/22 15:06:58;;;;;;;22.50;13.77;;;10.00;59.10;;;;;;4970667;28;20431;-44
2022/01/22 15:09:25;;;;;;;18.80;13.50;;;9.90;60.00;;;;;;4971105;28;20532;-43
2022/01/22 15:11:51;;;;;;;16.03;12.03;;;9.90;59.80;;;;;;4971065;28;20430;-43